SWR72L EDDM-LSZH
Flight info
| Callsign | SWR72L |
|---|---|
| Flight time | 0h 33m |
| Altitude | 26000 |
| Route | MERSI5S/26L MERSI Y100 MOMUK Y112 RAVED L856 NEGRA NEGRA2A |
| Aircraft | A320/M-SDE3FGHIRWY/LB1 |
Departure
| Time | 2026-05-07 18:01 |
|---|---|
| Airport | Munich Airport (EDDM) |
Arrival
| Time | 2026-05-07 18:34 |
|---|---|
| Airport | Zürich Airport (LSZH) |
| Time | Latitude | Longitude | Altitude | Speed | Heading |
|---|---|---|---|---|---|
| 2026-05-07 17:33 | 48.35465 | 11.80014 | 1486 ft | 0 kts | 263° |
| 2026-05-07 17:50 | 48.35466 | 11.80020 | 1475 ft | 3 kts | 263° |
| 2026-05-07 17:50 | 48.35469 | 11.80060 | 1485 ft | 4 kts | 263° |
| 2026-05-07 17:50 | 48.35471 | 11.80088 | 1482 ft | 4 kts | 223° |
| 2026-05-07 17:50 | 48.35491 | 11.80096 | 1478 ft | 4 kts | 173° |
| 2026-05-07 17:51 | 48.35507 | 11.80093 | 1473 ft | 0 kts | 173° |
| 2026-05-07 17:52 | 48.35477 | 11.80098 | 1471 ft | 8 kts | 173° |
| 2026-05-07 17:53 | 48.35395 | 11.80117 | 1478 ft | 15 kts | 166° |
| 2026-05-07 17:53 | 48.35273 | 11.80142 | 1484 ft | 20 kts | 173° |
| 2026-05-07 17:53 | 48.35160 | 11.80093 | 1482 ft | 18 kts | 261° |
| 2026-05-07 17:53 | 48.35146 | 11.79893 | 1485 ft | 14 kts | 263° |
| 2026-05-07 17:54 | 48.35137 | 11.79787 | 1485 ft | 8 kts | 263° |
| 2026-05-07 17:54 | 48.35135 | 11.79766 | 1485 ft | 0 kts | 263° |
| 2026-05-07 17:55 | 48.35132 | 11.79724 | 1483 ft | 9 kts | 263° |
| 2026-05-07 17:55 | 48.35068 | 11.79657 | 1481 ft | 16 kts | 173° |
| 2026-05-07 17:56 | 48.34963 | 11.79676 | 1482 ft | 14 kts | 173° |
| 2026-05-07 17:56 | 48.34878 | 11.79692 | 1477 ft | 1 kts | 172° |
| 2026-05-07 17:56 | 48.34873 | 11.79693 | 1479 ft | 3 kts | 172° |
| 2026-05-07 17:56 | 48.34831 | 11.79701 | 1475 ft | 10 kts | 173° |
| 2026-05-07 17:57 | 48.34736 | 11.79713 | 1485 ft | 17 kts | 185° |
| 2026-05-07 17:57 | 48.34669 | 11.79638 | 1475 ft | 20 kts | 233° |
| 2026-05-07 17:57 | 48.34556 | 11.79405 | 1485 ft | 22 kts | 233° |
| 2026-05-07 17:57 | 48.34492 | 11.79275 | 1474 ft | 0 kts | 233° |
| 2026-05-07 17:58 | 48.34490 | 11.79271 | 1480 ft | 2 kts | 233° |
| 2026-05-07 17:59 | 48.34467 | 11.79225 | 1485 ft | 9 kts | 233° |
| 2026-05-07 17:59 | 48.34411 | 11.79135 | 1478 ft | 15 kts | 212° |
| 2026-05-07 17:59 | 48.34372 | 11.79041 | 1485 ft | 0 kts | 262° |
| 2026-05-07 18:00 | 48.34352 | 11.78805 | 1485 ft | 61 kts | 264° |
| 2026-05-07 18:00 | 48.34278 | 11.77811 | 1486 ft | 128 kts | 263° |
| 2026-05-07 18:01 | 48.34168 | 11.76242 | 1673 ft | 162 kts | 263° |
| 2026-05-07 18:01 | 48.34053 | 11.74552 | 2404 ft | 163 kts | 265° |
| 2026-05-07 18:01 | 48.33937 | 11.72846 | 3080 ft | 169 kts | 266° |
| 2026-05-07 18:01 | 48.33798 | 11.70974 | 3448 ft | 191 kts | 265° |
| 2026-05-07 18:02 | 48.33452 | 11.66549 | 4489 ft | 226 kts | 264° |
| 2026-05-07 18:02 | 48.33261 | 11.64175 | 5296 ft | 236 kts | 264° |
| 2026-05-07 18:02 | 48.33068 | 11.61607 | 5815 ft | 256 kts | 264° |
| 2026-05-07 18:03 | 48.32872 | 11.58906 | 6630 ft | 264 kts | 264° |
| 2026-05-07 18:03 | 48.32672 | 11.56159 | 6937 ft | 264 kts | 264° |
| 2026-05-07 18:03 | 48.32473 | 11.53418 | 7030 ft | 264 kts | 264° |
| 2026-05-07 18:03 | 48.32274 | 11.50686 | 7048 ft | 263 kts | 264° |
| 2026-05-07 18:04 | 48.32070 | 11.47932 | 7288 ft | 270 kts | 264° |
| 2026-05-07 18:04 | 48.31775 | 11.45173 | 8331 ft | 267 kts | 253° |
| 2026-05-07 18:04 | 48.31007 | 11.42630 | 9353 ft | 268 kts | 244° |
| 2026-05-07 18:04 | 48.30154 | 11.40130 | 10286 ft | 271 kts | 244° |
| 2026-05-07 18:05 | 48.29250 | 11.37508 | 10650 ft | 294 kts | 244° |
| 2026-05-07 18:05 | 48.28277 | 11.34695 | 11115 ft | 310 kts | 243° |
| 2026-05-07 18:05 | 48.27270 | 11.31796 | 11851 ft | 316 kts | 243° |
| 2026-05-07 18:05 | 48.26268 | 11.28836 | 12643 ft | 320 kts | 244° |
| 2026-05-07 18:06 | 48.25289 | 11.25810 | 13430 ft | 325 kts | 245° |
| 2026-05-07 18:06 | 48.24314 | 11.22726 | 14158 ft | 329 kts | 245° |
| 2026-05-07 18:06 | 48.23332 | 11.19605 | 14859 ft | 333 kts | 246° |
| 2026-05-07 18:06 | 48.22335 | 11.16451 | 15553 ft | 337 kts | 246° |
| 2026-05-07 18:07 | 48.21324 | 11.13264 | 16221 ft | 340 kts | 246° |
| 2026-05-07 18:07 | 48.20296 | 11.10046 | 16897 ft | 344 kts | 246° |
| 2026-05-07 18:07 | 48.19252 | 11.06793 | 17588 ft | 348 kts | 246° |
| 2026-05-07 18:07 | 48.18194 | 11.03508 | 18292 ft | 352 kts | 246° |
| 2026-05-07 18:08 | 48.17120 | 11.00182 | 18909 ft | 356 kts | 246° |
| 2026-05-07 18:08 | 48.16033 | 10.96828 | 19550 ft | 359 kts | 245° |
| 2026-05-07 18:08 | 48.14936 | 10.93452 | 20186 ft | 363 kts | 245° |
| 2026-05-07 18:08 | 48.13828 | 10.90035 | 20826 ft | 366 kts | 246° |
| 2026-05-07 18:09 | 48.12713 | 10.86589 | 21411 ft | 370 kts | 245° |
| 2026-05-07 18:09 | 48.11586 | 10.83102 | 22012 ft | 375 kts | 245° |
| 2026-05-07 18:09 | 48.10440 | 10.79575 | 22641 ft | 378 kts | 245° |
| 2026-05-07 18:09 | 48.09286 | 10.76023 | 23266 ft | 382 kts | 245° |
| 2026-05-07 18:10 | 48.08118 | 10.72438 | 23837 ft | 385 kts | 245° |
| 2026-05-07 18:10 | 48.06938 | 10.68827 | 24350 ft | 388 kts | 245° |
| 2026-05-07 18:10 | 48.05731 | 10.65138 | 24849 ft | 391 kts | 245° |
| 2026-05-07 18:10 | 48.04530 | 10.61471 | 25345 ft | 394 kts | 245° |
| 2026-05-07 18:11 | 48.03322 | 10.57793 | 25828 ft | 396 kts | 245° |
| 2026-05-07 18:11 | 48.02515 | 10.55337 | 25975 ft | 397 kts | 245° |
| 2026-05-07 18:11 | 48.00895 | 10.50422 | 26052 ft | 403 kts | 245° |
| 2026-05-07 18:11 | 47.99640 | 10.46611 | 26031 ft | 413 kts | 245° |
| 2026-05-07 18:12 | 47.98367 | 10.42745 | 26033 ft | 416 kts | 245° |
| 2026-05-07 18:12 | 47.97088 | 10.38864 | 26041 ft | 417 kts | 245° |
| 2026-05-07 18:12 | 47.95807 | 10.34982 | 26039 ft | 417 kts | 245° |
| 2026-05-07 18:12 | 47.94522 | 10.31103 | 26057 ft | 417 kts | 245° |
| 2026-05-07 18:13 | 47.93235 | 10.27229 | 26056 ft | 417 kts | 245° |
| 2026-05-07 18:13 | 47.91943 | 10.23357 | 26057 ft | 417 kts | 245° |
| 2026-05-07 18:13 | 47.90649 | 10.19481 | 26059 ft | 417 kts | 245° |
| 2026-05-07 18:13 | 47.89357 | 10.15614 | 26055 ft | 417 kts | 245° |
| 2026-05-07 18:14 | 47.88066 | 10.11750 | 26053 ft | 417 kts | 245° |
| 2026-05-07 18:14 | 47.86773 | 10.07881 | 25877 ft | 417 kts | 245° |
| 2026-05-07 18:14 | 47.85482 | 10.04030 | 25624 ft | 415 kts | 245° |
| 2026-05-07 18:14 | 47.84193 | 10.00190 | 25370 ft | 414 kts | 245° |
| 2026-05-07 18:15 | 47.82912 | 9.96368 | 25118 ft | 412 kts | 245° |
| 2026-05-07 18:15 | 47.81631 | 9.92560 | 24870 ft | 411 kts | 244° |
| 2026-05-07 18:15 | 47.80351 | 9.88768 | 24617 ft | 410 kts | 244° |
| 2026-05-07 18:15 | 47.79070 | 9.84987 | 24366 ft | 409 kts | 244° |
| 2026-05-07 18:16 | 47.77792 | 9.81221 | 24136 ft | 407 kts | 244° |
| 2026-05-07 18:16 | 47.76513 | 9.77466 | 23892 ft | 406 kts | 244° |
| 2026-05-07 18:16 | 47.75235 | 9.73725 | 23654 ft | 405 kts | 244° |
| 2026-05-07 18:16 | 47.73971 | 9.69992 | 23388 ft | 403 kts | 246° |
| 2026-05-07 18:17 | 47.73078 | 9.66072 | 23104 ft | 399 kts | 258° |
| 2026-05-07 18:17 | 47.72769 | 9.62104 | 22661 ft | 377 kts | 268° |
| 2026-05-07 18:17 | 47.72667 | 9.58252 | 22063 ft | 370 kts | 268° |
| 2026-05-07 18:17 | 47.72566 | 9.54463 | 21629 ft | 365 kts | 267° |
| 2026-05-07 18:18 | 47.72465 | 9.50708 | 21132 ft | 362 kts | 267° |
| 2026-05-07 18:18 | 47.72334 | 9.46988 | 20633 ft | 360 kts | 263° |
| 2026-05-07 18:18 | 47.71784 | 9.43386 | 20149 ft | 357 kts | 250° |
| 2026-05-07 18:18 | 47.70699 | 9.40087 | 19665 ft | 356 kts | 237° |
| 2026-05-07 18:19 | 47.69193 | 9.37178 | 19196 ft | 354 kts | 231° |
| 2026-05-07 18:19 | 47.67638 | 9.34357 | 18722 ft | 353 kts | 231° |
| 2026-05-07 18:19 | 47.66089 | 9.31541 | 18241 ft | 351 kts | 231° |
| 2026-05-07 18:19 | 47.64550 | 9.28744 | 17738 ft | 349 kts | 232° |
| 2026-05-07 18:20 | 47.63025 | 9.25975 | 17267 ft | 342 kts | 232° |
| 2026-05-07 18:20 | 47.61558 | 9.23306 | 16837 ft | 326 kts | 232° |
| 2026-05-07 18:20 | 47.60222 | 9.20695 | 16416 ft | 311 kts | 239° |
| 2026-05-07 18:20 | 47.59294 | 9.17887 | 16025 ft | 297 kts | 251° |
| 2026-05-07 18:21 | 47.58780 | 9.14957 | 15632 ft | 294 kts | 259° |
| 2026-05-07 18:21 | 47.58420 | 9.12008 | 15245 ft | 295 kts | 259° |
| 2026-05-07 18:21 | 47.58019 | 9.08985 | 14842 ft | 295 kts | 254° |
| 2026-05-07 18:21 | 47.57223 | 9.06190 | 14450 ft | 296 kts | 239° |
| 2026-05-07 18:22 | 47.55941 | 9.03810 | 14049 ft | 297 kts | 224° |
| 2026-05-07 18:22 | 47.55435 | 9.03156 | 13925 ft | 298 kts | 219° |
| 2026-05-07 18:22 | 47.52327 | 9.00828 | 13213 ft | 301 kts | 203° |
| 2026-05-07 18:22 | 47.50377 | 8.99725 | 12802 ft | 300 kts | 203° |
| 2026-05-07 18:23 | 47.49089 | 8.98994 | 12535 ft | 299 kts | 203° |
| 2026-05-07 18:23 | 47.47155 | 8.97891 | 12122 ft | 297 kts | 204° |
| 2026-05-07 18:23 | 47.45229 | 8.96788 | 11720 ft | 296 kts | 203° |
| 2026-05-07 18:23 | 47.43311 | 8.95691 | 11311 ft | 295 kts | 203° |
| 2026-05-07 18:24 | 47.41402 | 8.94601 | 10899 ft | 294 kts | 203° |
| 2026-05-07 18:24 | 47.39500 | 8.93517 | 10487 ft | 293 kts | 203° |
| 2026-05-07 18:24 | 47.37616 | 8.92445 | 9991 ft | 287 kts | 203° |
| 2026-05-07 18:24 | 47.35787 | 8.91404 | 9750 ft | 275 kts | 203° |
| 2026-05-07 18:25 | 47.34053 | 8.90420 | 9618 ft | 260 kts | 202° |
| 2026-05-07 18:25 | 47.32375 | 8.89469 | 9393 ft | 258 kts | 202° |
| 2026-05-07 18:25 | 47.30709 | 8.88523 | 9061 ft | 255 kts | 202° |
| 2026-05-07 18:25 | 47.29060 | 8.87568 | 8707 ft | 254 kts | 206° |
| 2026-05-07 18:26 | 47.27587 | 8.86169 | 8355 ft | 251 kts | 223° |
| 2026-05-07 18:26 | 47.26470 | 8.84223 | 7991 ft | 248 kts | 239° |
| 2026-05-07 18:26 | 47.25715 | 8.81954 | 7630 ft | 246 kts | 245° |
| 2026-05-07 18:26 | 47.24999 | 8.79666 | 7278 ft | 246 kts | 245° |
| 2026-05-07 18:27 | 47.24290 | 8.77410 | 6902 ft | 239 kts | 246° |
| 2026-05-07 18:27 | 47.23876 | 8.75093 | 6572 ft | 228 kts | 266° |
| 2026-05-07 18:27 | 47.23986 | 8.72898 | 6448 ft | 203 kts | 284° |
| 2026-05-07 18:27 | 47.24451 | 8.71080 | 6288 ft | 180 kts | 298° |
| 2026-05-07 18:28 | 47.25135 | 8.69642 | 6098 ft | 165 kts | 312° |
| 2026-05-07 18:28 | 47.25948 | 8.68567 | 5901 ft | 152 kts | 324° |
| 2026-05-07 18:28 | 47.26852 | 8.67797 | 5694 ft | 149 kts | 336° |
| 2026-05-07 18:28 | 47.27775 | 8.67169 | 5475 ft | 147 kts | 335° |
| 2026-05-07 18:29 | 47.28714 | 8.66527 | 5265 ft | 147 kts | 335° |
| 2026-05-07 18:29 | 47.29636 | 8.65897 | 5050 ft | 146 kts | 336° |
| 2026-05-07 18:29 | 47.30555 | 8.65269 | 4838 ft | 145 kts | 336° |
| 2026-05-07 18:29 | 47.31469 | 8.64644 | 4623 ft | 144 kts | 336° |
| 2026-05-07 18:30 | 47.32365 | 8.64032 | 4403 ft | 143 kts | 336° |
| 2026-05-07 18:30 | 47.33278 | 8.63407 | 4193 ft | 144 kts | 336° |
| 2026-05-07 18:30 | 47.34228 | 8.62757 | 3972 ft | 154 kts | 335° |
| 2026-05-07 18:30 | 47.35191 | 8.62097 | 3746 ft | 154 kts | 335° |
| 2026-05-07 18:31 | 47.36163 | 8.61432 | 3520 ft | 154 kts | 335° |
| 2026-05-07 18:31 | 47.37123 | 8.60774 | 3291 ft | 147 kts | 335° |
| 2026-05-07 18:31 | 47.38026 | 8.60154 | 3081 ft | 140 kts | 335° |
| 2026-05-07 18:31 | 47.38897 | 8.59557 | 2873 ft | 137 kts | 335° |
| 2026-05-07 18:32 | 47.39764 | 8.58962 | 2681 ft | 136 kts | 335° |
| 2026-05-07 18:32 | 47.40620 | 8.58374 | 2468 ft | 136 kts | 335° |
| 2026-05-07 18:32 | 47.41480 | 8.57784 | 2252 ft | 136 kts | 335° |
| 2026-05-07 18:32 | 47.42337 | 8.57195 | 2052 ft | 137 kts | 335° |
| 2026-05-07 18:33 | 47.43194 | 8.56606 | 1846 ft | 136 kts | 335° |
| 2026-05-07 18:33 | 47.44048 | 8.56017 | 1651 ft | 135 kts | 336° |
| 2026-05-07 18:33 | 47.44897 | 8.55427 | 1456 ft | 133 kts | 335° |
| 2026-05-07 18:33 | 47.45681 | 8.54887 | 1400 ft | 109 kts | 335° |
| 2026-05-07 18:34 | 47.46216 | 8.54522 | 1385 ft | 60 kts | 335° |
| 2026-05-07 18:34 | 47.46502 | 8.54323 | 1381 ft | 42 kts | 335° |
| 2026-05-07 18:34 | 47.46777 | 8.54136 | 1380 ft | 45 kts | 335° |
| 2026-05-07 18:34 | 47.46983 | 8.54029 | 1385 ft | 19 kts | 21° |
| 2026-05-07 18:35 | 47.47010 | 8.54207 | 1383 ft | 21 kts | 124° |
| 2026-05-07 18:35 | 47.46876 | 8.54342 | 1381 ft | 25 kts | 145° |
| 2026-05-07 18:35 | 47.46794 | 8.54417 | 1383 ft | 11 kts | 158° |
| 2026-05-07 18:35 | 47.46735 | 8.54453 | 1381 ft | 8 kts | 158° |
| 2026-05-07 18:36 | 47.46693 | 8.54477 | 1383 ft | 5 kts | 158° |
| 2026-05-07 18:36 | 47.46638 | 8.54516 | 1386 ft | 11 kts | 155° |
| 2026-05-07 18:36 | 47.46521 | 8.54593 | 1385 ft | 26 kts | 156° |
| 2026-05-07 18:36 | 47.46320 | 8.54733 | 1383 ft | 35 kts | 154° |
| 2026-05-07 18:37 | 47.46101 | 8.54888 | 1387 ft | 35 kts | 154° |
| 2026-05-07 18:37 | 47.45916 | 8.55014 | 1396 ft | 12 kts | 155° |
| 2026-05-07 18:37 | 47.45850 | 8.55059 | 1395 ft | 10 kts | 155° |
| 2026-05-07 18:37 | 47.45790 | 8.55100 | 1394 ft | 8 kts | 155° |
| 2026-05-07 18:38 | 47.45724 | 8.55145 | 1397 ft | 14 kts | 155° |
| 2026-05-07 18:38 | 47.45617 | 8.55220 | 1402 ft | 20 kts | 154° |
| 2026-05-07 18:38 | 47.45538 | 8.55349 | 1402 ft | 15 kts | 106° |
| 2026-05-07 18:38 | 47.45531 | 8.55453 | 1409 ft | 7 kts | 95° |
| 2026-05-07 18:39 | 47.45527 | 8.55520 | 1405 ft | 8 kts | 96° |
| 2026-05-07 18:39 | 47.45517 | 8.55637 | 1413 ft | 14 kts | 95° |
| 2026-05-07 18:39 | 47.45487 | 8.55756 | 1412 ft | 13 kts | 167° |
| 2026-05-07 18:39 | 47.45448 | 8.55750 | 1407 ft | 2 kts | 184° |
| 2026-05-07 18:40 | 47.45431 | 8.55748 | 1412 ft | 0 kts | 186° |